createdAt,value
2018-11-26T00:00:43.419Z,5.07
2018-11-26T00:03:13.384Z,4.60
2018-11-26T00:05:55.762Z,4.90
2018-11-26T00:08:37.338Z,5.33
2018-11-26T00:11:25.261Z,4.80
2018-11-26T00:14:06.909Z,4.43
2018-11-26T00:16:36.824Z,3.90
2018-11-26T00:19:18.979Z,3.87
2018-11-26T00:22:00.797Z,4.10
2018-11-26T00:24:49.402Z,4.07
2018-11-26T00:27:19.327Z,4.07
2018-11-26T00:29:49.270Z,3.60
2018-11-26T00:32:31.463Z,4.37
2018-11-26T00:35:01.408Z,4.10
2018-11-26T00:37:43.226Z,4.40
2018-11-26T00:40:25.189Z,4.43
2018-11-26T00:43:06.933Z,4.87
2018-11-26T00:45:49.247Z,4.63
2018-11-26T00:48:31.953Z,4.20
2018-11-26T00:51:20.810Z,3.77
2018-11-26T00:54:03.249Z,4.00
2018-11-26T00:56:33.364Z,4.80
2018-11-26T00:59:15.592Z,3.80
2018-11-26T01:01:57.318Z,4.27
2018-11-26T01:04:39.664Z,4.27
2018-11-26T01:07:29.854Z,3.70
2018-11-26T01:09:59.820Z,3.63
2018-11-26T01:12:42.381Z,4.03
2018-11-26T01:15:23.956Z,4.07
2018-11-26T01:18:05.781Z,4.47
2018-11-26T01:20:35.769Z,5.47
2018-11-26T01:23:17.995Z,4.47
2018-11-26T01:25:47.923Z,4.17
2018-11-26T01:28:30.137Z,4.80
2018-11-26T01:31:11.923Z,4.10
2018-11-26T01:33:54.018Z,4.13
2018-11-26T01:36:23.978Z,4.93
2018-11-26T01:39:08.030Z,4.30
2018-11-26T01:41:50.100Z,4.47
2018-11-26T01:44:20.016Z,3.83
2018-11-26T01:47:03.069Z,4.13
2018-11-26T01:49:45.091Z,4.20
2018-11-26T01:52:16.122Z,4.90
2018-11-26T01:54:58.710Z,4.23
2018-11-26T01:57:40.610Z,3.60
2018-11-26T02:00:24.660Z,4.57
2018-11-26T02:03:06.847Z,4.30
2018-11-26T02:05:48.479Z,4.30
2018-11-26T02:08:30.193Z,4.07
2018-11-26T02:11:11.907Z,4.53
2018-11-26T02:13:54.425Z,4.80
2018-11-26T02:16:36.389Z,4.57
2018-11-26T02:19:06.726Z,4.17
2018-11-26T02:21:36.693Z,4.50
2018-11-26T02:24:18.628Z,4.50
2018-11-26T02:27:01.446Z,4.07
2018-11-26T02:29:43.301Z,5.33
2018-11-26T02:32:25.104Z,4.90
2018-11-26T02:35:07.420Z,6.03
2018-11-26T02:37:50.375Z,6.17
2018-11-26T02:40:38.831Z,5.10
2018-11-26T02:43:08.742Z,5.83
2018-11-26T02:45:38.713Z,6.37
2018-11-26T02:48:20.482Z,6.90
2018-11-26T02:51:01.904Z,5.80
2018-11-26T02:53:31.799Z,6.27
2018-11-26T02:56:01.709Z,5.90
2018-11-26T02:58:43.828Z,5.83
2018-11-26T03:01:25.661Z,5.13
2018-11-26T03:04:08.222Z,4.13
2018-11-26T03:06:38.167Z,4.33
2018-11-26T03:09:21.472Z,4.63
2018-11-26T03:11:51.409Z,4.67
2018-11-26T03:14:33.388Z,4.77
2018-11-26T03:17:03.284Z,4.63
2018-11-26T03:19:44.965Z,4.63
2018-11-26T03:22:26.841Z,4.40
2018-11-26T03:25:09.419Z,5.03
2018-11-26T03:27:51.114Z,4.77
2018-11-26T03:30:33.007Z,5.10
2018-11-26T03:33:02.918Z,4.67
2018-11-26T03:35:46.070Z,3.83
2018-11-26T03:38:22.084Z,4.33
2018-11-26T03:40:52.024Z,4.57
2018-11-26T03:43:34.018Z,5.17
2018-11-26T03:46:22.770Z,4.90
2018-11-26T03:49:04.124Z,4.77
2018-11-26T03:51:45.732Z,4.57
2018-11-26T03:54:37.686Z,4.80
2018-11-26T03:57:20.035Z,4.77
2018-11-26T04:00:02.138Z,4.70
2018-11-26T04:02:44.600Z,4.20
2018-11-26T04:05:26.777Z,4.47
2018-11-26T04:08:09.534Z,4.57
2018-11-26T04:10:57.475Z,4.63
2018-11-26T04:13:27.371Z,3.70
2018-11-26T04:15:57.320Z,4.83
2018-11-26T04:18:39.667Z,4.30
2018-11-26T04:21:27.625Z,4.63
2018-11-26T04:24:09.376Z,4.63
2018-11-26T04:26:39.286Z,3.97
2018-11-26T04:29:09.219Z,4.87
2018-11-26T04:31:39.188Z,4.87
2018-11-26T04:34:09.156Z,5.87
2018-11-26T04:36:50.901Z,5.37
2018-11-26T04:39:33.312Z,4.97
2018-11-26T04:42:03.231Z,4.83
2018-11-26T04:44:33.179Z,4.93
2018-11-26T04:47:14.941Z,5.10
2018-11-26T04:49:56.641Z,5.40
2018-11-26T04:52:39.182Z,4.20
2018-11-26T04:55:21.150Z,4.27
2018-11-26T04:58:02.945Z,4.77
2018-11-26T05:00:44.576Z,4.80
2018-11-26T05:03:27.088Z,4.67
2018-11-26T05:06:09.695Z,4.57
2018-11-26T05:08:51.821Z,4.97
2018-11-26T05:11:34.409Z,4.37
2018-11-26T05:14:16.474Z,4.63
2018-11-26T05:16:59.252Z,5.20
2018-11-26T05:19:41.736Z,4.90
2018-11-26T05:22:23.431Z,5.10
2018-11-26T05:25:13.413Z,4.17
2018-11-26T05:27:55.732Z,4.90
2018-11-26T05:30:37.397Z,4.77
2018-11-26T05:33:25.536Z,4.83
2018-11-26T05:36:07.994Z,5.00
2018-11-26T05:38:37.955Z,3.93
2018-11-26T05:41:07.878Z,4.67
2018-11-26T05:43:37.781Z,5.10
2018-11-26T05:46:19.549Z,4.97
2018-11-26T05:49:08.278Z,4.20
2018-11-26T05:51:56.033Z,4.70
2018-11-26T05:54:29.792Z,3.90
2018-11-26T05:57:12.267Z,5.17
2018-11-26T05:59:42.210Z,5.33
2018-11-26T06:02:17.948Z,4.70
2018-11-26T06:04:47.883Z,4.80
2018-11-26T06:07:29.470Z,4.57
2018-11-26T06:09:59.423Z,4.93
2018-11-26T06:12:42.072Z,5.27
2018-11-26T06:15:24.132Z,4.67
2018-11-26T06:18:06.832Z,4.40
2018-11-26T06:20:48.461Z,4.53
2018-11-26T06:23:30.049Z,4.53
2018-11-26T06:26:11.473Z,4.30
2018-11-26T06:28:53.367Z,4.97
2018-11-26T06:31:35.508Z,5.23
2018-11-26T06:34:17.168Z,4.43
2018-11-26T06:36:47.109Z,4.73
2018-11-26T06:39:29.379Z,4.63
2018-11-26T06:42:11.104Z,5.60
2018-11-26T06:44:59.225Z,5.50
2018-11-26T06:47:41.994Z,6.17
2018-11-26T06:50:23.846Z,6.43
2018-11-26T06:53:05.493Z,5.43
2018-11-26T06:55:35.539Z,4.90
2018-11-26T06:58:05.683Z,6.20
2018-11-26T07:00:48.588Z,5.60
2018-11-26T07:03:30.192Z,4.40
2018-11-26T07:06:11.938Z,5.33
2018-11-26T07:08:53.528Z,5.23
2018-11-26T07:11:23.465Z,6.40
2018-11-26T07:14:06.471Z,4.97
2018-11-26T07:16:37.719Z,4.40
2018-11-26T07:19:20.341Z,4.57
2018-11-26T07:21:50.284Z,4.83
2018-11-26T07:24:20.242Z,4.37
2018-11-26T07:27:02.096Z,4.83
2018-11-26T07:29:32.009Z,4.30
2018-11-26T07:32:13.653Z,5.73
2018-11-26T07:35:03.888Z,4.83
2018-11-26T07:37:45.475Z,4.60
2018-11-26T07:40:26.655Z,5.30
2018-11-26T07:43:08.919Z,5.10
2018-11-26T07:45:50.702Z,5.30
2018-11-26T07:48:32.737Z,5.97
2018-11-26T07:51:31.177Z,6.30
2018-11-26T07:54:01.553Z,5.33
2018-11-26T07:56:44.097Z,4.80
2018-11-26T07:59:14.050Z,4.43
2018-11-26T08:02:03.606Z,5.20
2018-11-26T08:04:45.524Z,4.70
2018-11-26T08:07:33.413Z,5.07
2018-11-26T08:13:27.395Z,4.73
2018-11-26T08:16:10.087Z,5.13
2018-11-26T08:18:59.924Z,5.07
2018-11-26T08:21:41.649Z,6.33
2018-11-26T08:24:23.333Z,4.83
2018-11-26T08:27:11.071Z,5.20
2018-11-26T08:29:52.840Z,4.63
2018-11-26T08:32:34.835Z,5.80
2018-11-26T08:35:04.815Z,6.10
2018-11-26T08:37:35.158Z,5.07
2018-11-26T08:40:10.138Z,5.37
2018-11-26T08:42:45.788Z,5.47
2018-11-26T08:45:20.828Z,5.97
2018-11-26T08:47:58.233Z,6.67
2018-11-26T08:50:28.445Z,5.77
2018-11-26T08:52:58.376Z,5.97
2018-11-26T08:55:28.327Z,5.67
2018-11-26T08:57:58.373Z,6.17
2018-11-26T09:00:28.359Z,6.37
2018-11-26T09:08:47.301Z,5.37
2018-11-26T09:11:29.242Z,5.07
2018-11-26T09:14:10.807Z,5.57
2018-11-26T09:16:52.372Z,6.53
2018-11-26T09:19:22.331Z,6.10
2018-11-26T09:22:04.206Z,7.53
2018-11-26T09:24:47.111Z,8.27
2018-11-26T09:27:28.807Z,8.23
2018-11-26T09:29:58.751Z,7.80
2018-11-26T09:32:40.680Z,8.43
2018-11-26T09:35:22.446Z,9.03
2018-11-26T09:38:04.222Z,7.53
2018-11-26T09:40:34.089Z,8.80
2018-11-26T09:43:16.336Z,8.53
2018-11-26T09:45:58.021Z,8.87
2018-11-26T09:48:39.805Z,9.63
2018-11-26T09:51:14.135Z,9.03
2018-11-26T09:53:39.773Z,8.70
2018-11-26T09:56:09.724Z,8.80
2018-11-26T09:58:39.796Z,8.90
2018-11-26T10:01:21.288Z,9.40
2018-11-26T10:04:04.009Z,7.90
2018-11-26T10:06:46.039Z,7.77
2018-11-26T10:09:16.032Z,9.30
2018-11-26T10:11:58.178Z,8.43
2018-11-26T10:14:39.974Z,8.30
2018-11-26T10:17:21.781Z,9.03
2018-11-26T10:19:51.688Z,9.10
2018-11-26T10:22:21.733Z,9.03
2018-11-26T10:25:06.017Z,9.27
2018-11-26T10:27:34.512Z,8.70
2018-11-26T10:30:05.477Z,9.63
2018-11-26T10:35:47.514Z,9.13
2018-11-26T10:38:29.703Z,9.00
2018-11-26T10:40:59.842Z,8.40
2018-11-26T10:43:41.924Z,8.83
2018-11-26T10:46:23.893Z,9.43
2018-11-26T10:48:53.924Z,8.73
2018-11-26T10:51:35.963Z,9.47
2018-11-26T10:54:06.007Z,9.10
2018-11-26T10:56:36.047Z,8.70
2018-11-26T10:59:06.095Z,9.33
2018-11-26T11:01:52.681Z,9.13
2018-11-26T11:04:47.584Z,9.07
2018-11-26T11:07:23.254Z,8.77
2018-11-26T11:10:06.254Z,9.00
2018-11-26T11:12:48.730Z,8.87
2018-11-26T11:15:18.720Z,9.00
2018-11-26T11:18:01.043Z,8.13
2018-11-26T11:20:31.031Z,9.63
2018-11-26T11:26:13.045Z,9.50
2018-11-26T11:29:04.748Z,8.83
2018-11-26T11:31:46.430Z,9.23
2018-11-26T11:34:16.465Z,9.13
2018-11-26T11:36:58.783Z,9.03
2018-11-26T11:39:40.582Z,9.43
2018-11-26T11:42:10.885Z,9.10
2018-11-26T11:44:59.618Z,9.37
2018-11-26T11:47:29.654Z,8.17
2018-11-26T11:50:12.262Z,9.10
2018-11-26T11:52:54.287Z,9.03
2018-11-26T11:55:36.507Z,8.53
2018-11-26T11:58:19.204Z,8.67
2018-11-26T12:01:00.713Z,8.70
2018-11-26T12:03:42.419Z,8.20
2018-11-26T12:06:24.311Z,8.87
2018-11-26T12:09:08.321Z,9.50
2018-11-26T12:11:49.961Z,8.03
2018-11-26T12:14:31.833Z,8.63
2018-11-26T12:17:20.761Z,9.10
2018-11-26T12:19:50.830Z,8.60
2018-11-26T12:22:20.854Z,9.13
2018-11-26T12:25:12.899Z,8.70
2018-11-26T12:28:05.377Z,8.00
2018-11-26T12:30:40.236Z,8.60
2018-11-26T12:33:28.801Z,8.87
2018-11-26T12:39:18.580Z,7.90
2018-11-26T12:42:07.076Z,8.93
2018-11-26T12:44:49.084Z,9.47
2018-11-26T12:47:30.945Z,9.37
2018-11-26T12:50:12.687Z,9.67
2018-11-26T12:52:56.561Z,9.50
2018-11-26T12:55:44.811Z,10.53
2018-11-26T12:58:26.712Z,10.50
2018-11-26T13:00:56.709Z,10.50
2018-11-26T13:03:50.155Z,10.17
2018-11-26T13:09:40.683Z,10.17
2018-11-26T13:12:10.733Z,9.67
2018-11-26T13:18:01.976Z,9.93
2018-11-26T13:23:42.263Z,9.60
2018-11-26T13:26:24.758Z,10.63
2018-11-26T13:29:07.503Z,10.67
2018-11-26T13:31:49.880Z,9.23
2018-11-26T13:34:31.672Z,10.13
2018-11-26T13:37:13.751Z,10.10
2018-11-26T13:39:55.290Z,10.33
2018-11-26T13:42:37.059Z,10.13
2018-11-26T13:48:19.745Z,9.60
2018-11-26T13:53:49.209Z,10.17
2018-11-26T13:56:31.002Z,10.03
2018-11-26T13:59:00.974Z,9.87
2018-11-26T14:01:42.830Z,10.00
2018-11-26T14:04:24.749Z,10.13
2018-11-26T14:06:54.765Z,10.93
2018-11-26T14:09:37.259Z,9.80
2018-11-26T14:12:19.999Z,10.40
2018-11-26T14:15:01.980Z,10.37
2018-11-26T14:17:44.591Z,10.87
2018-11-26T14:20:26.470Z,10.70
2018-11-26T14:23:08.341Z,11.70
2018-11-26T14:25:50.043Z,10.63
2018-11-26T14:28:31.756Z,11.70
2018-11-26T14:31:01.783Z,11.70
2018-11-26T14:33:43.530Z,11.83
2018-11-26T14:36:25.768Z,11.60
2018-11-26T14:38:55.739Z,11.13
2018-11-26T14:41:38.993Z,11.43
2018-11-26T14:44:20.959Z,10.67
2018-11-26T14:47:03.146Z,11.30
2018-11-26T14:49:44.579Z,12.03
2018-11-26T14:52:33.019Z,11.87
2018-11-26T14:55:17.095Z,12.63
2018-11-26T14:57:59.079Z,11.83
2018-11-26T15:00:40.662Z,11.77
2018-11-26T15:03:22.273Z,13.10
2018-11-26T15:06:04.003Z,12.47
2018-11-26T15:08:46.267Z,12.33
2018-11-26T15:11:16.332Z,12.67
2018-11-26T15:13:46.361Z,12.40
2018-11-26T15:16:28.633Z,12.63
2018-11-26T15:18:58.616Z,13.20
2018-11-26T15:21:40.576Z,12.80
2018-11-26T15:24:22.039Z,12.80
2018-11-26T15:26:53.332Z,13.10
2018-11-26T15:29:35.257Z,14.07
2018-11-26T15:32:17.559Z,12.63
2018-11-26T15:34:59.223Z,13.10
2018-11-26T15:37:41.067Z,13.63
2018-11-26T15:40:22.983Z,13.43
2018-11-26T15:42:52.983Z,12.67
2018-11-26T15:45:34.902Z,13.07
2018-11-26T15:48:16.811Z,13.33
2018-11-26T15:50:46.760Z,12.73
2018-11-26T15:53:16.768Z,14.33
2018-11-26T15:55:58.533Z,13.93
2018-11-26T15:58:40.077Z,13.57
2018-11-26T16:01:10.119Z,13.73
2018-11-26T16:03:40.342Z,14.37
2018-11-26T16:06:23.538Z,15.13
2018-11-26T16:09:07.625Z,13.93
2018-11-26T16:11:49.389Z,13.03
2018-11-26T16:14:31.043Z,14.47
2018-11-26T16:17:12.918Z,14.70
2018-11-26T16:19:55.159Z,13.43
2018-11-26T16:22:36.633Z,13.23
2018-11-26T16:25:08.624Z,14.27
2018-11-26T16:27:38.697Z,13.13
2018-11-26T16:30:21.316Z,14.07
2018-11-26T16:33:03.775Z,14.10
2018-11-26T16:35:46.542Z,13.87
2018-11-26T16:38:28.611Z,13.73
2018-11-26T16:41:10.861Z,13.50
2018-11-26T16:43:53.479Z,13.80
2018-11-26T16:46:36.058Z,15.07
2018-11-26T16:49:06.353Z,15.50
2018-11-26T16:51:54.022Z,14.37
2018-11-26T16:54:35.634Z,14.80
2018-11-26T16:57:17.551Z,15.10
2018-11-26T16:59:59.359Z,14.77
2018-11-26T17:02:29.550Z,14.93
2018-11-26T17:04:59.586Z,14.80
2018-11-26T17:07:29.590Z,14.90
2018-11-26T17:10:11.930Z,15.03
2018-11-26T17:12:53.971Z,14.03
2018-11-26T17:15:36.290Z,15.20
2018-11-26T17:18:07.563Z,15.10
2018-11-26T17:20:49.343Z,14.63
2018-11-26T17:23:31.586Z,14.57
2018-11-26T17:26:13.805Z,14.00
2018-11-26T17:28:56.501Z,14.23
2018-11-26T17:31:38.384Z,15.20
2018-11-26T17:34:20.216Z,15.30
2018-11-26T17:37:02.485Z,14.27
2018-11-26T17:39:44.924Z,13.47
2018-11-26T17:42:26.593Z,13.87
2018-11-26T17:44:56.723Z,15.07
2018-11-26T17:47:39.163Z,15.23
2018-11-26T17:53:13.889Z,14.63
2018-11-26T17:55:56.624Z,14.57
2018-11-26T17:58:28.391Z,14.40
2018-11-26T18:01:11.866Z,14.70
2018-11-26T18:03:54.806Z,13.17
2018-11-26T18:06:37.078Z,13.53
2018-11-26T18:09:11.715Z,14.37
2018-11-26T18:11:41.743Z,14.47
2018-11-26T18:14:25.179Z,15.13
2018-11-26T18:17:07.996Z,13.47
2018-11-26T18:19:38.009Z,14.10
2018-11-26T18:22:08.251Z,15.83
2018-11-26T18:24:49.952Z,14.83
2018-11-26T18:27:20.042Z,13.90
2018-11-26T18:30:01.887Z,14.43
2018-11-26T18:32:43.902Z,13.40
2018-11-26T18:35:25.877Z,15.30
2018-11-26T18:38:07.846Z,14.20
2018-11-26T18:40:51.119Z,15.17
2018-11-26T18:43:21.286Z,14.00
2018-11-26T18:46:03.514Z,13.80
2018-11-26T18:48:45.277Z,14.33
2018-11-26T18:51:27.619Z,15.13
2018-11-26T18:54:10.390Z,14.93
2018-11-26T18:56:40.579Z,15.47
2018-11-26T18:59:23.005Z,15.97
2018-11-26T19:01:53.103Z,14.67
2018-11-26T19:04:23.186Z,14.80
2018-11-26T19:06:53.249Z,15.73
2018-11-26T19:09:35.104Z,14.37
2018-11-26T19:12:17.455Z,15.43
2018-11-26T19:14:59.938Z,14.70
2018-11-26T19:17:42.704Z,15.67
2018-11-26T19:20:13.699Z,15.20
2018-11-26T19:22:55.920Z,15.37
2018-11-26T19:25:26.037Z,15.23
2018-11-26T19:28:07.987Z,13.97
2018-11-26T19:30:37.995Z,16.37
2018-11-26T19:33:19.481Z,14.07
2018-11-26T19:36:01.479Z,14.87
2018-11-26T19:38:43.442Z,14.77
2018-11-26T19:41:25.762Z,14.63
2018-11-26T19:44:07.814Z,13.87
2018-11-26T19:46:37.872Z,14.40
2018-11-26T19:49:07.927Z,15.57
2018-11-26T19:51:50.154Z,16.10
2018-11-26T19:54:33.243Z,14.03
2018-11-26T19:57:15.544Z,15.00
2018-11-26T19:59:57.596Z,14.17
2018-11-26T20:02:40.168Z,14.37
2018-11-26T20:05:42.005Z,14.77
2018-11-26T20:10:54.462Z,14.93
2018-11-26T20:13:24.432Z,14.13
2018-11-26T20:15:55.111Z,14.30
2018-11-26T20:18:28.477Z,14.70
2018-11-26T20:20:55.075Z,14.77
2018-11-26T20:23:25.072Z,15.67
2018-11-26T20:25:54.961Z,16.03
2018-11-26T20:28:25.150Z,14.27
2018-11-26T20:30:55.140Z,13.83
2018-11-26T20:33:25.075Z,13.47
2018-11-26T20:35:55.019Z,15.30
2018-11-26T20:38:25.022Z,15.23
2018-11-26T20:40:55.110Z,13.60
2018-11-26T20:43:25.081Z,14.03
2018-11-26T20:45:54.963Z,13.77
2018-11-26T20:48:30.316Z,15.90
2018-11-26T20:50:55.094Z,14.37
2018-11-26T20:53:37.590Z,14.37
2018-11-26T20:56:20.381Z,13.60
2018-11-26T20:58:50.520Z,14.33
2018-11-26T21:01:32.692Z,14.80
2018-11-26T21:04:15.301Z,14.87
2018-11-26T21:06:57.768Z,14.77
2018-11-26T21:09:39.689Z,14.70
2018-11-26T21:12:22.006Z,14.57
2018-11-26T21:15:04.352Z,13.77
2018-11-26T21:17:34.507Z,13.63
2018-11-26T21:20:06.911Z,14.10
2018-11-26T21:22:49.851Z,12.63
2018-11-26T21:25:32.183Z,14.23
2018-11-26T21:28:13.981Z,13.97
2018-11-26T21:30:43.994Z,13.70
2018-11-26T21:33:26.610Z,12.87
2018-11-26T21:36:07.937Z,13.73
2018-11-26T21:38:49.667Z,13.03
2018-11-26T21:41:37.266Z,13.03
2018-11-26T21:44:20.004Z,14.10
2018-11-26T21:47:02.455Z,13.33
2018-11-26T21:49:44.534Z,13.63
2018-11-26T21:55:10.055Z,13.23
2018-11-26T21:57:52.711Z,12.90
2018-11-26T22:00:34.192Z,13.40
2018-11-26T22:03:10.420Z,14.77
2018-11-26T22:05:52.711Z,12.43
2018-11-26T22:08:35.105Z,11.00
2018-11-26T22:11:16.417Z,10.83
2018-11-26T22:14:04.785Z,10.70
2018-11-26T22:16:46.804Z,10.97
2018-11-26T22:19:34.742Z,13.27
2018-11-26T22:22:16.157Z,12.67
2018-11-26T22:24:58.061Z,10.80
2018-11-26T22:27:56.201Z,12.43
2018-11-26T22:30:37.761Z,11.67
2018-11-26T22:33:07.526Z,11.73
2018-11-26T22:35:49.176Z,12.70
2018-11-26T22:38:30.805Z,13.13
2018-11-26T22:41:12.781Z,13.13
2018-11-26T22:43:54.799Z,11.87
2018-11-26T22:46:24.748Z,12.10
2018-11-26T22:49:07.006Z,11.43
2018-11-26T22:51:36.991Z,12.03
2018-11-26T22:54:25.615Z,13.43
2018-11-26T22:57:07.088Z,13.20
2018-11-26T22:59:37.030Z,11.40
2018-11-26T23:02:18.314Z,12.83
2018-11-26T23:04:48.005Z,11.80
2018-11-26T23:07:37.170Z,13.00
2018-11-26T23:10:09.389Z,11.17
2018-11-26T23:12:58.001Z,13.77
2018-11-26T23:15:28.001Z,12.07
2018-11-26T23:18:10.227Z,11.13
2018-11-26T23:20:40.227Z,10.10
2018-11-26T23:23:10.193Z,11.97
2018-11-26T23:25:52.651Z,10.93
2018-11-26T23:28:34.287Z,10.30
2018-11-26T23:31:16.272Z,10.40
2018-11-26T23:33:58.538Z,11.20
2018-11-26T23:36:46.701Z,10.97
2018-11-26T23:39:28.498Z,10.70
2018-11-26T23:42:10.098Z,11.90
2018-11-26T23:44:58.288Z,11.73
2018-11-26T23:47:39.861Z,11.83
2018-11-26T23:50:22.187Z,11.40
2018-11-26T23:52:52.108Z,11.00
2018-11-26T23:55:33.468Z,11.43
2018-11-26T23:58:03.137Z,11.83
